Huvudsida
METAR-TAF:

METAR-TAF

Flygplatser :

Caen, Frankrike

latitud: 49-11N, longitud: 000-27W, höjd: 78 m

Aktuellt väderrapport

Denna rapport gjordes för 32 minuter sedan, klockan 13:30 UTC
Vind 7 kt från ost/sydost, varierande mellan ost/nordost och syd/sydost
Temperatur 24°C
Fuktighet 41%
Tryck 1022 hPa
Sikt 10 km eller mer
Inga moln under 1 500 m eller inga cumulonimbus

METAR: LFRK 091330Z AUTO 11007KT 070V150 CAVOK 24/10 Q1022 NOSIG

Tid: 16:02 (14:02 UTC)


TAF: saknas

Aktuella väderrapporter och prognoser från 4000 flygplatser (METAR- och TAF-rapporter).

De tillgängliga stationerna syns som gula och röda prickar på kartan.

För musen över prickarna för att se namnen på stationerna.

Klicka sedan för att få väderrapporter och prognoser.

För att ändra kartan: Klicka på de gröna knapparna med ett svart kors på för att zooma in; den gröna knappen med ett streck på för att zooma ut; eller på de gröna pilarna för angränsande kartor.


METAR-TAF: